createdAt,value
2022-11-12T00:00:29.858Z,4.50
2022-11-12T00:03:18.498Z,4.40
2022-11-12T00:06:07.206Z,4.30
2022-11-12T00:08:55.599Z,4.10
2022-11-12T00:11:43.994Z,4.00
2022-11-12T00:14:35.025Z,4.00
2022-11-12T00:17:23.671Z,3.90
2022-11-12T00:20:13.565Z,3.80
2022-11-12T00:23:01.689Z,3.90
2022-11-12T00:25:50.046Z,3.90
2022-11-12T00:28:38.767Z,3.70
2022-11-12T00:31:30.189Z,3.60
2022-11-12T00:34:18.850Z,3.60
2022-11-12T00:37:07.847Z,3.40
2022-11-12T00:39:57.122Z,3.40
2022-11-12T00:42:45.623Z,3.50
2022-11-12T00:45:33.986Z,3.50
2022-11-12T00:48:25.455Z,3.50
2022-11-12T00:51:14.153Z,3.50
2022-11-12T00:54:02.762Z,3.50
2022-11-12T00:56:51.501Z,3.50
2022-11-12T00:59:39.660Z,3.50
2022-11-12T01:02:28.135Z,3.50
2022-11-12T01:05:19.406Z,3.50
2022-11-12T01:08:08.136Z,3.40
2022-11-12T01:10:56.482Z,3.40
2022-11-12T01:13:46.291Z,3.60
2022-11-12T01:16:37.445Z,3.40
2022-11-12T01:19:26.107Z,3.30
2022-11-12T01:22:17.147Z,3.40
2022-11-12T01:25:05.942Z,3.40
2022-11-12T01:27:54.381Z,3.30
2022-11-12T01:30:42.766Z,3.30
2022-11-12T01:33:31.167Z,3.40
2022-11-12T01:36:21.160Z,3.30
2022-11-12T01:39:12.607Z,3.30
2022-11-12T01:42:01.438Z,3.20
2022-11-12T01:44:51.050Z,3.20
2022-11-12T01:47:39.498Z,3.10
2022-11-12T01:50:30.404Z,3.10
2022-11-12T01:53:18.797Z,3.10
2022-11-12T01:56:11.403Z,3.00
2022-11-12T01:59:03.661Z,3.00
2022-11-12T02:01:52.110Z,3.00
2022-11-12T02:04:43.299Z,3.00
2022-11-12T02:07:34.363Z,3.10
2022-11-12T02:10:23.617Z,2.90
2022-11-12T02:13:27.222Z,2.90
2022-11-12T02:16:15.800Z,2.80
2022-11-12T02:19:04.384Z,2.70
2022-11-12T02:21:55.203Z,2.60
2022-11-12T02:24:43.482Z,2.50
2022-11-12T02:27:32.396Z,2.40
2022-11-12T02:30:21.388Z,2.40
2022-11-12T02:33:09.663Z,2.40
2022-11-12T02:35:58.182Z,2.40
2022-11-12T02:38:49.326Z,2.30
2022-11-12T02:41:37.842Z,2.30
2022-11-12T02:44:26.349Z,2.20
2022-11-12T02:47:14.755Z,2.30
2022-11-12T02:50:03.136Z,2.30
2022-11-12T02:52:51.605Z,2.30
2022-11-12T02:55:42.837Z,2.20
2022-11-12T02:58:32.476Z,2.10
2022-11-12T03:01:20.524Z,1.90
2022-11-12T03:04:08.929Z,1.90
2022-11-12T03:06:57.518Z,2.00
2022-11-12T03:09:46.091Z,2.00
2022-11-12T03:12:37.294Z,2.10
2022-11-12T03:15:26.837Z,2.10
2022-11-12T03:18:14.820Z,2.20
2022-11-12T03:21:03.197Z,2.20
2022-11-12T03:23:51.730Z,2.10
2022-11-12T03:26:40.726Z,2.20
2022-11-12T03:29:32.570Z,2.10
2022-11-12T03:32:21.698Z,2.20
2022-11-12T03:35:11.013Z,2.20
2022-11-12T03:37:59.542Z,2.20
2022-11-12T03:40:47.880Z,2.30
2022-11-12T03:43:36.490Z,2.20
2022-11-12T03:46:27.608Z,2.20
2022-11-12T03:49:16.433Z,2.10
2022-11-12T03:52:05.877Z,2.00
2022-11-12T03:54:55.099Z,2.00
2022-11-12T03:57:45.167Z,2.00
2022-11-12T04:00:33.561Z,2.00
2022-11-12T04:03:24.422Z,2.10
2022-11-12T04:06:25.271Z,2.00
2022-11-12T04:09:13.947Z,1.90
2022-11-12T04:12:22.608Z,1.70
2022-11-12T04:15:09.660Z,1.80
2022-11-12T04:18:10.758Z,1.80
2022-11-12T04:21:14.856Z,1.90
2022-11-12T04:24:02.960Z,1.80
2022-11-12T04:26:48.950Z,1.80
2022-11-12T04:29:49.714Z,1.80
2022-11-12T04:32:39.507Z,1.70
2022-11-12T04:35:29.810Z,1.80
2022-11-12T04:38:21.173Z,1.80
2022-11-12T04:41:23.657Z,1.80
2022-11-12T04:44:25.305Z,1.90
2022-11-12T04:47:14.497Z,1.80
2022-11-12T04:50:04.618Z,1.60
2022-11-12T04:52:53.134Z,1.60
2022-11-12T04:55:45.474Z,1.60
2022-11-12T04:58:34.381Z,1.60
2022-11-12T05:01:22.853Z,1.70
2022-11-12T05:04:11.721Z,1.70
2022-11-12T05:07:00.358Z,1.70
2022-11-12T05:09:49.173Z,1.70
2022-11-12T05:12:40.542Z,1.70
2022-11-12T05:15:29.854Z,1.80
2022-11-12T05:18:18.061Z,1.60
2022-11-12T05:21:26.811Z,1.50
2022-11-12T05:24:34.093Z,1.40
2022-11-12T05:27:24.674Z,1.30
2022-11-12T05:30:16.854Z,1.30
2022-11-12T05:33:05.733Z,1.20
2022-11-12T05:35:54.431Z,1.00
2022-11-12T05:38:43.522Z,1.20
2022-11-12T05:41:51.045Z,1.20
2022-11-12T05:44:40.997Z,1.20
2022-11-12T05:47:32.249Z,1.20
2022-11-12T05:50:21.616Z,1.20
2022-11-12T05:53:09.950Z,1.20
2022-11-12T05:56:04.085Z,1.30
2022-11-12T05:58:52.410Z,1.20
2022-11-12T06:01:44.145Z,1.30
2022-11-12T06:04:36.254Z,1.20
2022-11-12T06:07:24.544Z,1.00
2022-11-12T06:10:19.095Z,1.00
2022-11-12T06:13:09.300Z,1.00
2022-11-12T06:15:58.150Z,1.00
2022-11-12T06:18:46.926Z,1.10
2022-11-12T06:21:38.167Z,1.10
2022-11-12T06:24:32.079Z,1.10
2022-11-12T06:27:24.587Z,1.20
2022-11-12T06:30:14.791Z,1.40
2022-11-12T06:33:04.360Z,1.60
2022-11-12T06:36:03.817Z,1.80
2022-11-12T06:38:54.845Z,1.90
2022-11-12T06:41:43.701Z,2.00
2022-11-12T06:44:32.477Z,2.20
2022-11-12T06:47:20.599Z,2.30
2022-11-12T06:50:09.936Z,2.40
2022-11-12T06:53:02.193Z,2.60
2022-11-12T06:55:54.480Z,2.80
2022-11-12T06:58:43.588Z,3.00
2022-11-12T07:01:31.804Z,3.40
2022-11-12T07:04:21.348Z,3.50
2022-11-12T07:07:11.007Z,3.80
2022-11-12T07:09:59.737Z,4.10
2022-11-12T07:12:53.505Z,4.50
2022-11-12T07:17:51.083Z,5.00
2022-11-12T07:20:39.727Z,5.40
2022-11-12T07:23:28.216Z,5.50
2022-11-12T07:26:18.235Z,5.60
2022-11-12T07:29:08.215Z,5.60
2022-11-12T07:31:56.599Z,5.70
2022-11-12T07:34:47.867Z,5.70
2022-11-12T07:37:39.095Z,5.60
2022-11-12T07:40:28.526Z,5.50
2022-11-12T07:43:16.681Z,5.50
2022-11-12T07:46:10.572Z,5.40
2022-11-12T07:48:59.456Z,5.50
2022-11-12T07:51:51.006Z,5.40
2022-11-12T07:54:39.608Z,5.40
2022-11-12T07:57:27.905Z,5.60
2022-11-12T08:00:19.342Z,5.60
2022-11-12T08:03:08.270Z,5.70
2022-11-12T08:05:57.304Z,5.80
2022-11-12T08:08:49.162Z,5.90
2022-11-12T08:11:37.826Z,6.10
2022-11-12T08:14:27.665Z,6.20
2022-11-12T08:17:15.946Z,6.30
2022-11-12T08:20:05.619Z,6.50
2022-11-12T08:22:55.092Z,6.60
2022-11-12T08:25:47.167Z,6.80
2022-11-12T08:28:37.361Z,7.00
2022-11-12T08:31:27.006Z,7.20
2022-11-12T08:34:21.524Z,7.50
2022-11-12T08:37:11.126Z,7.70
2022-11-12T08:39:59.578Z,7.80
2022-11-12T08:42:51.843Z,8.00
2022-11-12T08:45:42.556Z,8.20
2022-11-12T08:48:32.604Z,8.30
2022-11-12T08:51:21.105Z,8.50
2022-11-12T08:54:09.637Z,8.70
2022-11-12T08:56:59.161Z,8.90
2022-11-12T08:59:50.117Z,9.00
2022-11-12T09:02:39.131Z,9.20
2022-11-12T09:05:27.450Z,9.30
2022-11-12T09:08:17.915Z,9.30
2022-11-12T09:11:07.316Z,9.40
2022-11-12T09:13:56.506Z,9.50
2022-11-12T09:16:47.694Z,9.60
2022-11-12T09:19:41.624Z,9.60
2022-11-12T09:22:33.607Z,9.70
2022-11-12T09:25:22.400Z,9.80
2022-11-12T09:28:12.770Z,9.90
2022-11-12T09:31:02.225Z,10.00
2022-11-12T09:33:53.357Z,10.10
2022-11-12T09:36:42.211Z,10.20
2022-11-12T09:39:30.932Z,10.30
2022-11-12T09:42:20.761Z,10.60
2022-11-12T09:45:14.708Z,10.80
2022-11-12T09:48:07.313Z,10.90
2022-11-12T09:51:03.617Z,11.00
2022-11-12T09:53:57.028Z,11.10
2022-11-12T09:56:45.485Z,11.10
2022-11-12T09:59:36.204Z,11.30
2022-11-12T10:02:35.087Z,11.30
2022-11-12T10:05:31.470Z,11.30
2022-11-12T10:08:44.882Z,11.40
2022-11-12T10:12:12.205Z,11.60
2022-11-12T10:15:47.325Z,11.80
2022-11-12T10:18:46.418Z,11.90
2022-11-12T10:21:39.456Z,12.10
2022-11-12T10:24:36.454Z,12.20
2022-11-12T10:27:27.230Z,12.20
2022-11-12T10:30:20.197Z,12.40
2022-11-12T10:33:08.810Z,12.40
2022-11-12T10:36:00.473Z,12.50
2022-11-12T10:38:52.071Z,12.60
2022-11-12T10:41:43.393Z,12.70
2022-11-12T10:44:32.895Z,12.60
2022-11-12T10:47:34.049Z,12.50
2022-11-12T10:50:24.197Z,12.40
2022-11-12T10:53:15.633Z,12.30
2022-11-12T10:56:07.129Z,12.20
2022-11-12T10:59:17.362Z,12.20
2022-11-12T11:02:06.739Z,12.20
2022-11-12T11:04:55.351Z,12.10
2022-11-12T11:07:53.164Z,12.10
2022-11-12T11:10:42.877Z,12.00
2022-11-12T11:13:32.575Z,11.80
2022-11-12T11:16:25.056Z,11.80
2022-11-12T11:19:13.748Z,11.80
2022-11-12T11:22:13.482Z,11.90
2022-11-12T11:25:21.013Z,12.00
2022-11-12T11:28:18.332Z,12.10
2022-11-12T11:31:15.195Z,12.30
2022-11-12T11:34:16.182Z,12.50
2022-11-12T11:37:11.322Z,12.70
2022-11-12T11:40:07.528Z,12.90
2022-11-12T11:43:15.678Z,12.70
2022-11-12T11:46:11.648Z,12.70
2022-11-12T11:49:22.218Z,12.70
2022-11-12T11:52:18.366Z,12.80
2022-11-12T11:55:29.420Z,12.90
2022-11-12T11:58:43.734Z,12.90
2022-11-12T12:01:41.308Z,13.00
2022-11-12T12:04:45.849Z,13.10
2022-11-12T12:07:40.505Z,13.10
2022-11-12T12:11:01.194Z,13.00
2022-11-12T12:13:56.723Z,13.00
2022-11-12T12:16:52.734Z,13.10
2022-11-12T12:19:54.357Z,13.10
2022-11-12T12:22:47.445Z,13.00
2022-11-12T12:25:38.920Z,13.10
2022-11-12T12:28:36.685Z,13.10
2022-11-12T12:31:29.145Z,13.10
2022-11-12T12:34:22.346Z,13.20
2022-11-12T12:37:18.562Z,13.20
2022-11-12T12:40:12.438Z,13.30
2022-11-12T12:43:06.685Z,13.30
2022-11-12T12:45:55.974Z,13.30
2022-11-12T12:48:46.712Z,13.40
2022-11-12T12:51:38.248Z,13.40
2022-11-12T12:54:57.324Z,13.50
2022-11-12T12:57:48.964Z,13.50
2022-11-12T13:00:51.245Z,13.60
2022-11-12T13:03:57.865Z,13.70
2022-11-12T13:06:56.718Z,13.70
2022-11-12T13:09:45.304Z,13.70
2022-11-12T13:13:07.166Z,13.90
2022-11-12T13:15:56.637Z,13.90
2022-11-12T13:19:03.463Z,13.90
2022-11-12T13:22:28.015Z,13.90
2022-11-12T13:25:29.553Z,13.90
2022-11-12T13:28:20.873Z,13.70
2022-11-12T13:31:30.221Z,13.60
2022-11-12T13:34:24.229Z,13.50
2022-11-12T13:37:23.147Z,13.50
2022-11-12T13:40:14.682Z,13.70
2022-11-12T13:43:10.053Z,13.70
2022-11-12T13:46:03.833Z,13.60
2022-11-12T13:48:57.558Z,13.60
2022-11-12T13:51:48.164Z,13.50
2022-11-12T13:54:39.420Z,13.50
2022-11-12T13:57:34.369Z,13.40
2022-11-12T14:00:26.542Z,13.20
2022-11-12T14:03:22.073Z,13.10
2022-11-12T14:06:18.955Z,12.90
2022-11-12T14:09:19.601Z,12.60
2022-11-12T14:12:38.730Z,12.40
2022-11-12T14:15:29.807Z,12.30
2022-11-12T14:18:27.955Z,11.90
2022-11-12T14:21:21.503Z,11.80
2022-11-12T14:24:14.506Z,11.50
2022-11-12T14:27:03.960Z,11.40
2022-11-12T14:29:52.551Z,11.20
2022-11-12T14:32:42.628Z,11.10
2022-11-12T14:35:37.534Z,10.90
2022-11-12T14:38:30.514Z,10.60
2022-11-12T14:41:23.833Z,10.20
2022-11-12T14:44:19.629Z,10.00
2022-11-12T14:47:08.199Z,9.80
2022-11-12T14:49:57.529Z,9.70
2022-11-12T14:52:52.878Z,9.50
2022-11-12T14:55:45.579Z,9.30
2022-11-12T14:58:35.419Z,9.00
2022-11-12T15:04:42.129Z,8.60
2022-11-12T15:07:32.446Z,8.40
2022-11-12T15:10:39.799Z,8.10
2022-11-12T15:13:30.443Z,8.00
2022-11-12T15:16:25.371Z,7.80
2022-11-12T15:19:24.574Z,7.70
2022-11-12T15:22:22.016Z,7.60
2022-11-12T15:25:15.952Z,7.40
2022-11-12T15:28:24.944Z,7.30
2022-11-12T15:31:19.043Z,7.00
2022-11-12T15:34:29.409Z,6.80
2022-11-12T15:37:26.587Z,6.60
2022-11-12T15:40:19.399Z,6.30
2022-11-12T15:43:15.641Z,6.30
2022-11-12T15:46:06.527Z,6.40
2022-11-12T15:48:56.279Z,6.50
2022-11-12T15:51:45.483Z,6.60
2022-11-12T15:54:40.677Z,6.70
2022-11-12T15:57:31.491Z,6.60
2022-11-12T16:00:23.071Z,6.60
2022-11-12T16:03:18.677Z,6.60
2022-11-12T16:06:09.501Z,6.40
2022-11-12T16:08:58.123Z,6.20
2022-11-12T16:11:46.489Z,6.10
2022-11-12T16:14:35.060Z,6.00
2022-11-12T16:17:23.689Z,5.90
2022-11-12T16:20:21.440Z,5.80
2022-11-12T16:23:10.073Z,5.70
2022-11-12T16:25:59.169Z,5.60
2022-11-12T16:28:47.878Z,5.50
2022-11-12T16:31:36.621Z,5.40
2022-11-12T16:34:25.900Z,5.30
2022-11-12T16:37:18.126Z,5.00
2022-11-12T16:40:07.142Z,5.00
2022-11-12T16:42:55.514Z,4.90
2022-11-12T16:45:46.022Z,4.80
2022-11-12T16:48:35.045Z,4.80
2022-11-12T16:51:24.503Z,4.70
2022-11-12T16:54:16.616Z,4.60
2022-11-12T16:57:04.972Z,4.40
2022-11-12T16:59:53.456Z,4.40
2022-11-12T17:02:45.305Z,4.40
2022-11-12T17:05:36.730Z,4.30
2022-11-12T17:08:33.672Z,4.30
2022-11-12T17:11:25.447Z,4.20
2022-11-12T17:14:14.182Z,4.20
2022-11-12T17:17:03.079Z,4.20
2022-11-12T17:19:51.570Z,4.20
2022-11-12T17:22:40.984Z,4.20
2022-11-12T17:25:29.392Z,4.30
2022-11-12T17:28:20.512Z,4.30
2022-11-12T17:31:11.419Z,4.20
2022-11-12T17:34:01.376Z,4.20
2022-11-12T17:36:50.120Z,4.20
2022-11-12T17:39:38.989Z,4.20
2022-11-12T17:42:27.351Z,4.10
2022-11-12T17:45:18.701Z,4.20
2022-11-12T17:48:08.335Z,4.10
2022-11-12T17:51:07.569Z,4.00
2022-11-12T17:53:56.401Z,4.20
2022-11-12T17:56:44.705Z,4.30
2022-11-12T17:59:33.509Z,4.30
2022-11-12T18:02:25.103Z,4.20
2022-11-12T18:05:13.500Z,4.20
2022-11-12T18:08:02.143Z,4.20
2022-11-12T18:10:50.848Z,4.10
2022-11-12T18:13:39.604Z,4.10
2022-11-12T18:16:29.376Z,4.10
2022-11-12T18:19:20.817Z,4.00
2022-11-12T18:22:10.319Z,4.00
2022-11-12T18:24:59.460Z,4.00
2022-11-12T18:27:48.273Z,4.30
2022-11-12T18:30:37.047Z,4.30
2022-11-12T18:33:26.677Z,4.30
2022-11-12T18:36:19.718Z,4.40
2022-11-12T18:39:08.631Z,4.40
2022-11-12T18:41:58.265Z,4.40
2022-11-12T18:44:47.589Z,4.40
2022-11-12T18:47:36.434Z,4.20
2022-11-12T18:50:25.684Z,4.10
2022-11-12T18:53:17.485Z,3.80
2022-11-12T18:56:08.105Z,3.80
2022-11-12T18:58:56.329Z,3.60
2022-11-12T19:01:45.423Z,3.50
2022-11-12T19:04:34.115Z,3.40
2022-11-12T19:07:22.534Z,3.40
2022-11-12T19:10:15.247Z,3.30
2022-11-12T19:13:05.166Z,3.30
2022-11-12T19:15:53.799Z,3.20
2022-11-12T19:18:43.197Z,3.20
2022-11-12T19:21:31.433Z,3.20
2022-11-12T19:24:20.461Z,3.30
2022-11-12T19:27:11.548Z,3.20
2022-11-12T19:30:03.141Z,3.30
2022-11-12T19:32:52.706Z,3.40
2022-11-12T19:35:43.337Z,3.50
2022-11-12T19:38:32.170Z,3.60
2022-11-12T19:41:20.831Z,3.60
2022-11-12T19:44:11.740Z,3.70
2022-11-12T19:47:00.497Z,3.70
2022-11-12T19:49:50.119Z,3.70
2022-11-12T19:52:38.507Z,3.80
2022-11-12T19:55:29.087Z,3.90
2022-11-12T19:58:17.630Z,4.00
2022-11-12T20:01:11.209Z,4.10
2022-11-12T20:03:59.506Z,4.20
2022-11-12T20:06:48.146Z,4.20
2022-11-12T20:09:36.605Z,4.30
2022-11-12T20:12:25.353Z,4.30
2022-11-12T20:15:14.586Z,4.40
2022-11-12T20:18:05.846Z,4.50
2022-11-12T20:20:56.026Z,4.60
2022-11-12T20:23:45.946Z,4.60
2022-11-12T20:26:34.412Z,4.70
2022-11-12T20:29:23.025Z,4.70
2022-11-12T20:32:11.973Z,4.90
2022-11-12T20:35:05.777Z,4.90
2022-11-12T20:38:00.109Z,5.00
2022-11-12T20:40:48.637Z,5.00
2022-11-12T20:43:37.230Z,5.10
2022-11-12T20:46:27.100Z,5.10
2022-11-12T20:49:15.395Z,5.10
2022-11-12T20:52:07.187Z,5.20
2022-11-12T20:54:55.477Z,5.20
2022-11-12T20:57:45.242Z,5.30
2022-11-12T21:00:33.184Z,5.40
2022-11-12T21:03:21.304Z,5.40
2022-11-12T21:06:12.178Z,5.40
2022-11-12T21:09:03.641Z,5.40
2022-11-12T21:11:54.077Z,5.40
2022-11-12T21:14:47.434Z,5.50
2022-11-12T21:17:38.848Z,5.50
2022-11-12T21:20:27.398Z,5.60
2022-11-12T21:23:16.158Z,5.70
2022-11-12T21:26:08.949Z,5.70
2022-11-12T21:28:58.427Z,5.70
2022-11-12T21:31:46.569Z,5.70
2022-11-12T21:34:35.088Z,5.80
2022-11-12T21:37:23.705Z,5.80
2022-11-12T21:40:12.977Z,5.90
2022-11-12T21:43:07.235Z,5.90
2022-11-12T21:45:55.664Z,5.90
2022-11-12T21:48:44.768Z,6.00
2022-11-12T21:51:36.809Z,6.00
2022-11-12T21:54:25.037Z,6.00
2022-11-12T21:57:18.495Z,6.00
2022-11-12T22:00:40.240Z,6.10
2022-11-12T22:03:20.328Z,6.10
2022-11-12T22:06:10.441Z,6.10
2022-11-12T22:09:00.027Z,6.00
2022-11-12T22:11:48.533Z,6.00
2022-11-12T22:14:37.124Z,6.00
2022-11-12T22:17:28.049Z,6.00
2022-11-12T22:20:17.053Z,6.00
2022-11-12T22:23:05.462Z,6.00
2022-11-12T22:25:54.496Z,6.00
2022-11-12T22:28:43.654Z,6.00
2022-11-12T22:31:34.319Z,6.00
2022-11-12T22:34:25.666Z,6.00
2022-11-12T22:37:14.043Z,6.00
2022-11-12T22:40:03.152Z,6.10
2022-11-12T22:42:51.917Z,6.10
2022-11-12T22:45:40.214Z,6.10
2022-11-12T22:48:29.161Z,6.20
2022-11-12T22:51:22.437Z,6.20
2022-11-12T22:54:13.350Z,6.20
2022-11-12T22:57:01.700Z,6.20
2022-11-12T22:59:50.228Z,6.20
2022-11-12T23:02:44.711Z,6.30
2022-11-12T23:05:37.026Z,6.30
2022-11-12T23:08:28.920Z,6.30
2022-11-12T23:11:18.865Z,6.20
2022-11-12T23:14:07.059Z,6.20
2022-11-12T23:16:55.529Z,6.20
2022-11-12T23:19:44.007Z,6.20
2022-11-12T23:22:32.733Z,6.30
2022-11-12T23:25:25.007Z,6.30
2022-11-12T23:40:30.792Z,6.40
2022-11-12T23:43:19.835Z,6.40
2022-11-12T23:46:08.614Z,6.40
2022-11-12T23:48:57.372Z,6.40
2022-11-12T23:51:45.941Z,6.40
2022-11-12T23:54:34.057Z,6.40
2022-11-12T23:57:25.201Z,6.40
